Terminal Aerodrome Forecast
Issued by NWS Wakefield, VA

Home | Current Version | Previous Version | Text Only | Print | Product List | Glossary On
Versions: 1 2 3 4 5 6 7 8 9 10 11 12 13
000
FTUS41 KAKQ 211100
TAFECG
TAF
KECG 211124Z 2112/2212 36006KT P6SM BKN070
     FM211500 03007KT P6SM SCT070
     FM220300 04007KT P6SM OVC070
     FM220800 03010KT P6SM -RA OVC050=

USA.gov is the U.S. government's official web portal to all federal, state and local government web resources and services.